REH552 KRDD-KBOI
Flight info
| Callsign | REH552 |
|---|---|
| Flight time | 1h 6m |
| Altitude | 39000 |
| Route | PRNCS SADYL4 |
| Aircraft | LJ35/M-SGHRWXY/SB1 |
Departure
| Time | 2026-05-09 01:31 |
|---|---|
| Airport | Redding Municipal Airport (KRDD) |
Arrival
| Time | 2026-05-09 02:38 |
|---|---|
| Airport | Boise Air Terminal/Gowen Field (KBOI) |
| Time | Latitude | Longitude | Altitude | Speed | Heading |
|---|---|---|---|---|---|
| 2026-05-09 01:05 | 40.50393 | -122.29917 | 505 ft | 0 kts | 314° |
| 2026-05-09 01:20 | 40.50395 | -122.29919 | 505 ft | 1 kts | 319° |
| 2026-05-09 01:21 | 40.50403 | -122.29921 | 505 ft | 2 kts | 17° |
| 2026-05-09 01:21 | 40.50408 | -122.29905 | 505 ft | 3 kts | 95° |
| 2026-05-09 01:21 | 40.50406 | -122.29877 | 505 ft | 4 kts | 95° |
| 2026-05-09 01:21 | 40.50409 | -122.29840 | 505 ft | 5 kts | 54° |
| 2026-05-09 01:22 | 40.50440 | -122.29826 | 505 ft | 6 kts | 356° |
| 2026-05-09 01:22 | 40.50483 | -122.29833 | 505 ft | 7 kts | 353° |
| 2026-05-09 01:22 | 40.50535 | -122.29840 | 505 ft | 8 kts | 355° |
| 2026-05-09 01:22 | 40.50594 | -122.29847 | 505 ft | 9 kts | 355° |
| 2026-05-09 01:23 | 40.50661 | -122.29855 | 505 ft | 10 kts | 353° |
| 2026-05-09 01:23 | 40.50734 | -122.29864 | 505 ft | 11 kts | 358° |
| 2026-05-09 01:23 | 40.50815 | -122.29866 | 505 ft | 12 kts | 359° |
| 2026-05-09 01:23 | 40.50899 | -122.29865 | 505 ft | 12 kts | 1° |
| 2026-05-09 01:24 | 40.50984 | -122.29866 | 505 ft | 12 kts | 359° |
| 2026-05-09 01:24 | 40.51069 | -122.29867 | 505 ft | 12 kts | 360° |
| 2026-05-09 01:24 | 40.51154 | -122.29863 | 505 ft | 12 kts | 4° |
| 2026-05-09 01:24 | 40.51238 | -122.29851 | 505 ft | 12 kts | 6° |
| 2026-05-09 01:25 | 40.51321 | -122.29840 | 505 ft | 12 kts | 5° |
| 2026-05-09 01:25 | 40.51405 | -122.29828 | 505 ft | 12 kts | 6° |
| 2026-05-09 01:25 | 40.51478 | -122.29817 | 505 ft | 10 kts | 6° |
| 2026-05-09 01:25 | 40.51530 | -122.29790 | 505 ft | 7 kts | 43° |
| 2026-05-09 01:26 | 40.51558 | -122.29752 | 505 ft | 6 kts | 44° |
| 2026-05-09 01:26 | 40.51598 | -122.29701 | 505 ft | 9 kts | 44° |
| 2026-05-09 01:26 | 40.51653 | -122.29638 | 505 ft | 12 kts | 17° |
| 2026-05-09 01:26 | 40.51743 | -122.29631 | 505 ft | 14 kts | 0° |
| 2026-05-09 01:27 | 40.51850 | -122.29630 | 505 ft | 17 kts | 0° |
| 2026-05-09 01:27 | 40.51953 | -122.29630 | 505 ft | 12 kts | 359° |
| 2026-05-09 01:27 | 40.52021 | -122.29612 | 505 ft | 9 kts | 52° |
| 2026-05-09 01:27 | 40.52028 | -122.29593 | 505 ft | 2 kts | 75° |
| 2026-05-09 01:28 | 40.52029 | -122.29582 | 505 ft | 0 kts | 79° |
| 2026-05-09 01:29 | 40.52030 | -122.29578 | 505 ft | 1 kts | 87° |
| 2026-05-09 01:29 | 40.52029 | -122.29552 | 505 ft | 4 kts | 93° |
| 2026-05-09 01:29 | 40.52027 | -122.29511 | 505 ft | 5 kts | 94° |
| 2026-05-09 01:29 | 40.52000 | -122.29479 | 505 ft | 7 kts | 176° |
| 2026-05-09 01:30 | 40.51925 | -122.29481 | 505 ft | 18 kts | 180° |
| 2026-05-09 01:30 | 40.51640 | -122.29482 | 505 ft | 74 kts | 181° |
| 2026-05-09 01:30 | 40.50909 | -122.29486 | 505 ft | 133 kts | 177° |
| 2026-05-09 01:30 | 40.49869 | -122.29520 | 560 ft | 163 kts | 181° |
| 2026-05-09 01:31 | 40.48688 | -122.29554 | 889 ft | 173 kts | 174° |
| 2026-05-09 01:31 | 40.47516 | -122.29115 | 1421 ft | 181 kts | 150° |
| 2026-05-09 01:31 | 40.46529 | -122.28086 | 1923 ft | 186 kts | 128° |
| 2026-05-09 01:31 | 40.45913 | -122.26553 | 2552 ft | 195 kts | 105° |
| 2026-05-09 01:32 | 40.45839 | -122.24767 | 3232 ft | 201 kts | 81° |
| 2026-05-09 01:32 | 40.46322 | -122.23026 | 3873 ft | 209 kts | 62° |
| 2026-05-09 01:32 | 40.47138 | -122.21351 | 4351 ft | 226 kts | 52° |
| 2026-05-09 01:32 | 40.48242 | -122.19805 | 4883 ft | 237 kts | 43° |
| 2026-05-09 01:33 | 40.49563 | -122.18426 | 5418 ft | 247 kts | 34° |
| 2026-05-09 01:33 | 40.51045 | -122.17227 | 5951 ft | 254 kts | 28° |
| 2026-05-09 01:33 | 40.52658 | -122.16189 | 6494 ft | 261 kts | 22° |
| 2026-05-09 01:33 | 40.54362 | -122.15299 | 7019 ft | 267 kts | 23° |
| 2026-05-09 01:34 | 40.55840 | -122.13848 | 7548 ft | 271 kts | 44° |
| 2026-05-09 01:34 | 40.57062 | -122.11909 | 8083 ft | 269 kts | 51° |
| 2026-05-09 01:34 | 40.58079 | -122.09987 | 8581 ft | 249 kts | 54° |
| 2026-05-09 01:34 | 40.58988 | -122.08130 | 9084 ft | 236 kts | 55° |
| 2026-05-09 01:35 | 40.59832 | -122.06318 | 9596 ft | 230 kts | 56° |
| 2026-05-09 01:35 | 40.60653 | -122.04526 | 10116 ft | 227 kts | 56° |
| 2026-05-09 01:35 | 40.61462 | -122.02754 | 10637 ft | 224 kts | 56° |
| 2026-05-09 01:35 | 40.62259 | -122.01022 | 11154 ft | 219 kts | 56° |
| 2026-05-09 01:36 | 40.63050 | -121.99308 | 11673 ft | 222 kts | 56° |
| 2026-05-09 01:36 | 40.63874 | -121.97532 | 12213 ft | 232 kts | 56° |
| 2026-05-09 01:36 | 40.64739 | -121.95679 | 12684 ft | 244 kts | 56° |
| 2026-05-09 01:36 | 40.65649 | -121.93733 | 13148 ft | 255 kts | 56° |
| 2026-05-09 01:37 | 40.66597 | -121.91714 | 13610 ft | 265 kts | 55° |
| 2026-05-09 01:37 | 40.67584 | -121.89614 | 14070 ft | 273 kts | 56° |
| 2026-05-09 01:37 | 40.68601 | -121.87458 | 14530 ft | 281 kts | 55° |
| 2026-05-09 01:37 | 40.69655 | -121.85250 | 14987 ft | 288 kts | 55° |
| 2026-05-09 01:38 | 40.70749 | -121.83003 | 15443 ft | 293 kts | 54° |
| 2026-05-09 01:38 | 40.71848 | -121.80757 | 15892 ft | 297 kts | 54° |
| 2026-05-09 01:38 | 40.72976 | -121.78455 | 16338 ft | 300 kts | 54° |
| 2026-05-09 01:38 | 40.74115 | -121.76134 | 16788 ft | 303 kts | 54° |
| 2026-05-09 01:39 | 40.75266 | -121.73791 | 17237 ft | 305 kts | 54° |
| 2026-05-09 01:39 | 40.76424 | -121.71432 | 17687 ft | 306 kts | 54° |
| 2026-05-09 01:39 | 40.77191 | -121.69864 | 17988 ft | 307 kts | 54° |
| 2026-05-09 01:39 | 40.78351 | -121.67488 | 18436 ft | 309 kts | 54° |
| 2026-05-09 01:40 | 40.79512 | -121.65096 | 18885 ft | 309 kts | 54° |
| 2026-05-09 01:40 | 40.80656 | -121.62694 | 19333 ft | 309 kts | 55° |
| 2026-05-09 01:40 | 40.81790 | -121.60293 | 19783 ft | 308 kts | 55° |
| 2026-05-09 01:40 | 40.82920 | -121.57888 | 20231 ft | 307 kts | 55° |
| 2026-05-09 01:41 | 40.84034 | -121.55514 | 20673 ft | 310 kts | 55° |
| 2026-05-09 01:41 | 40.85183 | -121.53084 | 21125 ft | 313 kts | 54° |
| 2026-05-09 01:41 | 40.86356 | -121.50651 | 21576 ft | 316 kts | 54° |
| 2026-05-09 01:41 | 40.87551 | -121.48189 | 22028 ft | 320 kts | 54° |
| 2026-05-09 01:42 | 40.89171 | -121.44862 | 22593 ft | 325 kts | 53° |
| 2026-05-09 01:42 | 40.89993 | -121.43197 | 22848 ft | 327 kts | 53° |
| 2026-05-09 01:42 | 40.91253 | -121.40677 | 23245 ft | 330 kts | 53° |
| 2026-05-09 01:42 | 40.92538 | -121.38128 | 23647 ft | 334 kts | 52° |
| 2026-05-09 01:43 | 40.93849 | -121.35574 | 24049 ft | 335 kts | 52° |
| 2026-05-09 01:43 | 40.95164 | -121.33057 | 24445 ft | 337 kts | 51° |
| 2026-05-09 01:43 | 40.96517 | -121.30522 | 24845 ft | 338 kts | 50° |
| 2026-05-09 01:43 | 40.97904 | -121.28008 | 25246 ft | 338 kts | 49° |
| 2026-05-09 01:44 | 40.99272 | -121.25472 | 25645 ft | 339 kts | 51° |
| 2026-05-09 01:44 | 41.00585 | -121.22862 | 26046 ft | 340 kts | 52° |
| 2026-05-09 01:44 | 41.01835 | -121.20210 | 26445 ft | 340 kts | 54° |
| 2026-05-09 01:44 | 41.03048 | -121.17518 | 26843 ft | 340 kts | 54° |
| 2026-05-09 01:45 | 41.04239 | -121.14811 | 27242 ft | 339 kts | 55° |
| 2026-05-09 01:45 | 41.05407 | -121.12109 | 27639 ft | 337 kts | 55° |
| 2026-05-09 01:45 | 41.06543 | -121.09406 | 28039 ft | 335 kts | 55° |
| 2026-05-09 01:45 | 41.07681 | -121.06702 | 28436 ft | 338 kts | 55° |
| 2026-05-09 01:46 | 41.08840 | -121.03969 | 28815 ft | 343 kts | 54° |
| 2026-05-09 01:46 | 41.10037 | -121.01202 | 29133 ft | 349 kts | 54° |
| 2026-05-09 01:46 | 41.11264 | -120.98386 | 29466 ft | 356 kts | 53° |
| 2026-05-09 01:46 | 41.12518 | -120.95518 | 29794 ft | 361 kts | 53° |
| 2026-05-09 01:47 | 41.13785 | -120.92618 | 30120 ft | 366 kts | 53° |
| 2026-05-09 01:47 | 41.15054 | -120.89712 | 30444 ft | 370 kts | 53° |
| 2026-05-09 01:47 | 41.16349 | -120.86740 | 30771 ft | 374 kts | 53° |
| 2026-05-09 01:47 | 41.17651 | -120.83740 | 31097 ft | 377 kts | 53° |
| 2026-05-09 01:48 | 41.18976 | -120.80713 | 31424 ft | 380 kts | 53° |
| 2026-05-09 01:48 | 41.20313 | -120.77661 | 31751 ft | 383 kts | 53° |
| 2026-05-09 01:48 | 41.21647 | -120.74596 | 32077 ft | 384 kts | 52° |
| 2026-05-09 01:48 | 41.22996 | -120.71516 | 32403 ft | 386 kts | 52° |
| 2026-05-09 01:49 | 41.24340 | -120.68421 | 32728 ft | 387 kts | 52° |
| 2026-05-09 01:49 | 41.25693 | -120.65310 | 33054 ft | 388 kts | 52° |
| 2026-05-09 01:49 | 41.27030 | -120.62236 | 33375 ft | 389 kts | 52° |
| 2026-05-09 01:49 | 41.28383 | -120.59115 | 33700 ft | 389 kts | 52° |
| 2026-05-09 01:50 | 41.29725 | -120.56001 | 34024 ft | 389 kts | 52° |
| 2026-05-09 01:50 | 41.31065 | -120.52876 | 34348 ft | 388 kts | 52° |
| 2026-05-09 01:50 | 41.32399 | -120.49757 | 34671 ft | 387 kts | 52° |
| 2026-05-09 01:50 | 41.33719 | -120.46642 | 34995 ft | 386 kts | 53° |
| 2026-05-09 01:51 | 41.35028 | -120.43526 | 35318 ft | 384 kts | 52° |
| 2026-05-09 01:51 | 41.36342 | -120.40433 | 35610 ft | 383 kts | 52° |
| 2026-05-09 01:51 | 41.37663 | -120.37360 | 35879 ft | 382 kts | 52° |
| 2026-05-09 01:51 | 41.38966 | -120.34344 | 36148 ft | 380 kts | 52° |
| 2026-05-09 01:52 | 41.40287 | -120.31297 | 36421 ft | 379 kts | 52° |
| 2026-05-09 01:52 | 41.41619 | -120.28228 | 36697 ft | 377 kts | 52° |
| 2026-05-09 01:52 | 41.42914 | -120.25252 | 36966 ft | 375 kts | 52° |
| 2026-05-09 01:52 | 41.44214 | -120.22250 | 37237 ft | 372 kts | 52° |
| 2026-05-09 01:53 | 41.45493 | -120.19261 | 37451 ft | 372 kts | 52° |
| 2026-05-09 01:53 | 41.46768 | -120.16269 | 37671 ft | 370 kts | 52° |
| 2026-05-09 01:53 | 41.48049 | -120.13295 | 37894 ft | 368 kts | 52° |
| 2026-05-09 01:53 | 41.49316 | -120.10336 | 38116 ft | 366 kts | 52° |
| 2026-05-09 01:54 | 41.50574 | -120.07388 | 38338 ft | 363 kts | 52° |
| 2026-05-09 01:54 | 41.51818 | -120.04464 | 38559 ft | 360 kts | 52° |
| 2026-05-09 01:54 | 41.53036 | -120.01604 | 38775 ft | 357 kts | 52° |
| 2026-05-09 01:54 | 41.54256 | -119.98737 | 38975 ft | 354 kts | 52° |
| 2026-05-09 01:55 | 41.55475 | -119.95887 | 39101 ft | 353 kts | 52° |
| 2026-05-09 01:55 | 41.56701 | -119.93027 | 39156 ft | 355 kts | 52° |
| 2026-05-09 01:55 | 41.59196 | -119.87252 | 39168 ft | 363 kts | 52° |
| 2026-05-09 01:56 | 41.61761 | -119.81317 | 39159 ft | 373 kts | 53° |
| 2026-05-09 01:56 | 41.64334 | -119.75195 | 39155 ft | 382 kts | 53° |
| 2026-05-09 01:57 | 41.66989 | -119.68934 | 39157 ft | 392 kts | 53° |
| 2026-05-09 01:57 | 41.69684 | -119.62546 | 39158 ft | 401 kts | 53° |
| 2026-05-09 01:58 | 41.72471 | -119.55982 | 39155 ft | 410 kts | 53° |
| 2026-05-09 01:58 | 41.75339 | -119.49285 | 39152 ft | 419 kts | 53° |
| 2026-05-09 01:59 | 41.78262 | -119.42405 | 39151 ft | 428 kts | 54° |
| 2026-05-09 01:59 | 41.81210 | -119.35440 | 39148 ft | 437 kts | 54° |
| 2026-05-09 02:00 | 41.84215 | -119.28275 | 39145 ft | 445 kts | 55° |
| 2026-05-09 02:00 | 41.87248 | -119.20960 | 39142 ft | 452 kts | 55° |
| 2026-05-09 02:01 | 41.90336 | -119.13534 | 39137 ft | 459 kts | 55° |
| 2026-05-09 02:01 | 41.93472 | -119.06004 | 39133 ft | 465 kts | 55° |
| 2026-05-09 02:02 | 41.96612 | -118.98353 | 39129 ft | 470 kts | 56° |
| 2026-05-09 02:02 | 41.99781 | -118.90621 | 39126 ft | 474 kts | 56° |
| 2026-05-09 02:03 | 42.03000 | -118.82824 | 39121 ft | 478 kts | 56° |
| 2026-05-09 02:03 | 42.06253 | -118.75027 | 39092 ft | 483 kts | 56° |
| 2026-05-09 02:04 | 42.09518 | -118.67090 | 39092 ft | 486 kts | 56° |
| 2026-05-09 02:04 | 42.12797 | -118.59083 | 39093 ft | 489 kts | 56° |
| 2026-05-09 02:05 | 42.16095 | -118.51029 | 39082 ft | 491 kts | 56° |
| 2026-05-09 02:05 | 42.19324 | -118.43007 | 39082 ft | 478 kts | 56° |
| 2026-05-09 02:06 | 42.20903 | -118.39078 | 38723 ft | 466 kts | 56° |
| 2026-05-09 02:06 | 42.22416 | -118.35322 | 38323 ft | 456 kts | 56° |
| 2026-05-09 02:06 | 42.23920 | -118.31595 | 37940 ft | 448 kts | 56° |
| 2026-05-09 02:07 | 42.26850 | -118.24335 | 37184 ft | 433 kts | 56° |
| 2026-05-09 02:07 | 42.28272 | -118.20774 | 36806 ft | 428 kts | 56° |
| 2026-05-09 02:07 | 42.29671 | -118.17250 | 36429 ft | 423 kts | 56° |
| 2026-05-09 02:07 | 42.31042 | -118.13770 | 36053 ft | 418 kts | 57° |
| 2026-05-09 02:08 | 42.32402 | -118.10316 | 35676 ft | 414 kts | 57° |
| 2026-05-09 02:08 | 42.33749 | -118.06894 | 35300 ft | 410 kts | 57° |
| 2026-05-09 02:08 | 42.35088 | -118.03501 | 34924 ft | 407 kts | 57° |
| 2026-05-09 02:08 | 42.36420 | -118.00135 | 34548 ft | 404 kts | 57° |
| 2026-05-09 02:09 | 42.37746 | -117.96794 | 34173 ft | 402 kts | 57° |
| 2026-05-09 02:09 | 42.39073 | -117.93481 | 33798 ft | 400 kts | 56° |
| 2026-05-09 02:09 | 42.40383 | -117.90228 | 33427 ft | 398 kts | 57° |
| 2026-05-09 02:09 | 42.41727 | -117.86910 | 33047 ft | 396 kts | 56° |
| 2026-05-09 02:10 | 42.43058 | -117.83710 | 32677 ft | 394 kts | 54° |
| 2026-05-09 02:10 | 42.44507 | -117.80576 | 32301 ft | 391 kts | 51° |
| 2026-05-09 02:10 | 42.46073 | -117.77587 | 31927 ft | 388 kts | 47° |
| 2026-05-09 02:10 | 42.47725 | -117.74714 | 31552 ft | 386 kts | 45° |
| 2026-05-09 02:11 | 42.49439 | -117.71912 | 31177 ft | 385 kts | 44° |
| 2026-05-09 02:11 | 42.51171 | -117.69147 | 30735 ft | 386 kts | 44° |
| 2026-05-09 02:11 | 42.52922 | -117.66363 | 30277 ft | 388 kts | 44° |
| 2026-05-09 02:11 | 42.54672 | -117.63564 | 29826 ft | 390 kts | 45° |
| 2026-05-09 02:12 | 42.56425 | -117.60744 | 29377 ft | 391 kts | 45° |
| 2026-05-09 02:12 | 42.58167 | -117.57904 | 28928 ft | 392 kts | 45° |
| 2026-05-09 02:12 | 42.59910 | -117.55043 | 28478 ft | 393 kts | 46° |
| 2026-05-09 02:12 | 42.61652 | -117.52184 | 28029 ft | 393 kts | 46° |
| 2026-05-09 02:13 | 42.63388 | -117.49321 | 27580 ft | 394 kts | 46° |
| 2026-05-09 02:13 | 42.65109 | -117.46411 | 27129 ft | 394 kts | 47° |
| 2026-05-09 02:13 | 42.66792 | -117.43561 | 26685 ft | 383 kts | 46° |
| 2026-05-09 02:13 | 42.68429 | -117.40787 | 26081 ft | 371 kts | 46° |
| 2026-05-09 02:14 | 42.70024 | -117.38082 | 25489 ft | 361 kts | 46° |
| 2026-05-09 02:14 | 42.71575 | -117.35449 | 24908 ft | 351 kts | 46° |
| 2026-05-09 02:14 | 42.73085 | -117.32887 | 24331 ft | 344 kts | 46° |
| 2026-05-09 02:14 | 42.74579 | -117.30390 | 23754 ft | 337 kts | 45° |
| 2026-05-09 02:15 | 42.76047 | -117.27939 | 23177 ft | 332 kts | 46° |
| 2026-05-09 02:15 | 42.77481 | -117.25516 | 22602 ft | 327 kts | 46° |
| 2026-05-09 02:15 | 42.78896 | -117.23112 | 22026 ft | 323 kts | 46° |
| 2026-05-09 02:15 | 42.80291 | -117.20739 | 21450 ft | 320 kts | 46° |
| 2026-05-09 02:16 | 42.81674 | -117.18385 | 20875 ft | 317 kts | 46° |
| 2026-05-09 02:16 | 42.83045 | -117.16052 | 20298 ft | 314 kts | 46° |
| 2026-05-09 02:16 | 42.84406 | -117.13739 | 19723 ft | 311 kts | 46° |
| 2026-05-09 02:16 | 42.85742 | -117.11475 | 19155 ft | 309 kts | 46° |
| 2026-05-09 02:17 | 42.87090 | -117.09194 | 18579 ft | 307 kts | 46° |
| 2026-05-09 02:17 | 42.88429 | -117.06936 | 18005 ft | 305 kts | 46° |
| 2026-05-09 02:17 | 42.89765 | -117.04694 | 17433 ft | 304 kts | 46° |
| 2026-05-09 02:17 | 42.91101 | -117.02462 | 16856 ft | 302 kts | 46° |
| 2026-05-09 02:18 | 42.92429 | -117.00245 | 16280 ft | 301 kts | 46° |
| 2026-05-09 02:18 | 42.93742 | -116.98030 | 15704 ft | 299 kts | 46° |
| 2026-05-09 02:18 | 42.95046 | -116.95824 | 15128 ft | 297 kts | 47° |
| 2026-05-09 02:18 | 42.96331 | -116.93621 | 14554 ft | 296 kts | 47° |
| 2026-05-09 02:19 | 42.97607 | -116.91431 | 14090 ft | 290 kts | 47° |
| 2026-05-09 02:19 | 42.98808 | -116.89363 | 13988 ft | 273 kts | 47° |
| 2026-05-09 02:19 | 43.00000 | -116.87311 | 13972 ft | 273 kts | 47° |
| 2026-05-09 02:19 | 43.01168 | -116.85296 | 13969 ft | 273 kts | 47° |
| 2026-05-09 02:20 | 43.02343 | -116.83268 | 13966 ft | 271 kts | 47° |
| 2026-05-09 02:20 | 43.03515 | -116.81256 | 13967 ft | 272 kts | 47° |
| 2026-05-09 02:20 | 43.04743 | -116.79203 | 13806 ft | 288 kts | 46° |
| 2026-05-09 02:20 | 43.06040 | -116.77041 | 13570 ft | 293 kts | 47° |
| 2026-05-09 02:21 | 43.07299 | -116.74929 | 13316 ft | 282 kts | 47° |
| 2026-05-09 02:21 | 43.08509 | -116.72881 | 13058 ft | 272 kts | 47° |
| 2026-05-09 02:21 | 43.09678 | -116.70895 | 12805 ft | 264 kts | 47° |
| 2026-05-09 02:21 | 43.10811 | -116.68966 | 12551 ft | 258 kts | 47° |
| 2026-05-09 02:22 | 43.11923 | -116.67079 | 12296 ft | 252 kts | 47° |
| 2026-05-09 02:22 | 43.13015 | -116.65229 | 12044 ft | 247 kts | 47° |
| 2026-05-09 02:22 | 43.14087 | -116.63412 | 11794 ft | 244 kts | 47° |
| 2026-05-09 02:22 | 43.15146 | -116.61618 | 11543 ft | 240 kts | 46° |
| 2026-05-09 02:23 | 43.16194 | -116.59849 | 11286 ft | 238 kts | 46° |
| 2026-05-09 02:23 | 43.17236 | -116.58116 | 11105 ft | 232 kts | 45° |
| 2026-05-09 02:23 | 43.18263 | -116.56471 | 11026 ft | 230 kts | 45° |
| 2026-05-09 02:23 | 43.19302 | -116.54829 | 11009 ft | 226 kts | 44° |
| 2026-05-09 02:24 | 43.20329 | -116.53223 | 11004 ft | 222 kts | 44° |
| 2026-05-09 02:24 | 43.21330 | -116.51643 | 11010 ft | 217 kts | 44° |
| 2026-05-09 02:24 | 43.22309 | -116.50092 | 11006 ft | 213 kts | 44° |
| 2026-05-09 02:24 | 43.23271 | -116.48562 | 10990 ft | 211 kts | 44° |
| 2026-05-09 02:25 | 43.24245 | -116.47037 | 10826 ft | 216 kts | 44° |
| 2026-05-09 02:25 | 43.25268 | -116.45471 | 10613 ft | 223 kts | 43° |
| 2026-05-09 02:25 | 43.26327 | -116.43863 | 10397 ft | 231 kts | 44° |
| 2026-05-09 02:25 | 43.27407 | -116.42206 | 10176 ft | 235 kts | 44° |
| 2026-05-09 02:26 | 43.28488 | -116.40548 | 9951 ft | 237 kts | 44° |
| 2026-05-09 02:26 | 43.29599 | -116.38855 | 9726 ft | 238 kts | 44° |
| 2026-05-09 02:26 | 43.30717 | -116.37159 | 9509 ft | 241 kts | 44° |
| 2026-05-09 02:26 | 43.31852 | -116.35450 | 9287 ft | 243 kts | 44° |
| 2026-05-09 02:27 | 43.32996 | -116.33734 | 9055 ft | 244 kts | 44° |
| 2026-05-09 02:27 | 43.34134 | -116.32008 | 8832 ft | 244 kts | 45° |
| 2026-05-09 02:27 | 43.35272 | -116.30268 | 8613 ft | 245 kts | 45° |
| 2026-05-09 02:27 | 43.36605 | -116.28868 | 8379 ft | 240 kts | 19° |
| 2026-05-09 02:28 | 43.38215 | -116.28574 | 8142 ft | 233 kts | 349° |
| 2026-05-09 02:28 | 43.39654 | -116.29435 | 7869 ft | 230 kts | 319° |
| 2026-05-09 02:28 | 43.40555 | -116.31223 | 7594 ft | 230 kts | 289° |
| 2026-05-09 02:28 | 43.40631 | -116.33405 | 7334 ft | 234 kts | 259° |
| 2026-05-09 02:29 | 43.40204 | -116.34768 | 7154 ft | 237 kts | 239° |
| 2026-05-09 02:29 | 43.39041 | -116.36402 | 6897 ft | 240 kts | 227° |
| 2026-05-09 02:29 | 43.38202 | -116.38337 | 6619 ft | 236 kts | 257° |
| 2026-05-09 02:29 | 43.38196 | -116.40558 | 6356 ft | 234 kts | 283° |
| 2026-05-09 02:30 | 43.38816 | -116.42605 | 6078 ft | 234 kts | 307° |
| 2026-05-09 02:30 | 43.40099 | -116.43959 | 5807 ft | 236 kts | 336° |
| 2026-05-09 02:30 | 43.41719 | -116.44290 | 5534 ft | 240 kts | 5° |
| 2026-05-09 02:30 | 43.43306 | -116.43556 | 5263 ft | 244 kts | 29° |
| 2026-05-09 02:31 | 43.44535 | -116.41944 | 5002 ft | 247 kts | 51° |
| 2026-05-09 02:31 | 43.45439 | -116.39924 | 4721 ft | 250 kts | 66° |
| 2026-05-09 02:31 | 43.45873 | -116.37638 | 4462 ft | 251 kts | 78° |
| 2026-05-09 02:31 | 43.46152 | -116.35259 | 4189 ft | 252 kts | 79° |
| 2026-05-09 02:32 | 43.46434 | -116.32898 | 4029 ft | 247 kts | 79° |
| 2026-05-09 02:32 | 43.46712 | -116.30594 | 3936 ft | 241 kts | 78° |
| 2026-05-09 02:32 | 43.46985 | -116.28347 | 3906 ft | 234 kts | 78° |
| 2026-05-09 02:32 | 43.47248 | -116.26173 | 3913 ft | 226 kts | 79° |
| 2026-05-09 02:33 | 43.47500 | -116.24091 | 3917 ft | 214 kts | 79° |
| 2026-05-09 02:33 | 43.47739 | -116.22106 | 3914 ft | 205 kts | 79° |
| 2026-05-09 02:33 | 43.47966 | -116.20212 | 3914 ft | 194 kts | 78° |
| 2026-05-09 02:33 | 43.48193 | -116.18496 | 3883 ft | 176 kts | 71° |
| 2026-05-09 02:34 | 43.48589 | -116.17005 | 3896 ft | 157 kts | 65° |
| 2026-05-09 02:34 | 43.49056 | -116.15718 | 3889 ft | 142 kts | 56° |
| 2026-05-09 02:34 | 43.49560 | -116.14625 | 3867 ft | 129 kts | 54° |
| 2026-05-09 02:34 | 43.50030 | -116.13613 | 3847 ft | 127 kts | 54° |
| 2026-05-09 02:35 | 43.50595 | -116.12657 | 3950 ft | 134 kts | 39° |
| 2026-05-09 02:35 | 43.51410 | -116.11919 | 3955 ft | 148 kts | 20° |
| 2026-05-09 02:35 | 43.52465 | -116.11687 | 3952 ft | 162 kts | 354° |
| 2026-05-09 02:35 | 43.53593 | -116.12124 | 3950 ft | 176 kts | 336° |
| 2026-05-09 02:36 | 43.54604 | -116.13142 | 3914 ft | 189 kts | 308° |
| 2026-05-09 02:36 | 43.55112 | -116.14825 | 3929 ft | 189 kts | 282° |
| 2026-05-09 02:36 | 43.55221 | -116.16537 | 3782 ft | 172 kts | 270° |
| 2026-05-09 02:36 | 43.55053 | -116.18127 | 3465 ft | 165 kts | 263° |
| 2026-05-09 02:37 | 43.55134 | -116.19611 | 3058 ft | 151 kts | 297° |
| 2026-05-09 02:37 | 43.55873 | -116.20764 | 3164 ft | 169 kts | 308° |
| 2026-05-09 02:37 | 43.56333 | -116.22240 | 2891 ft | 162 kts | 292° |
| 2026-05-09 02:37 | 43.56687 | -116.23332 | 2874 ft | 62 kts | 294° |
| 2026-05-09 02:38 | 43.56745 | -116.23505 | 2874 ft | 4 kts | 297° |
| 2026-05-09 02:38 | 43.56760 | -116.23546 | 2874 ft | 8 kts | 297° |
| 2026-05-09 02:38 | 43.56788 | -116.23647 | 2874 ft | 11 kts | 290° |
| 2026-05-09 02:38 | 43.56816 | -116.23741 | 2874 ft | 10 kts | 294° |
| 2026-05-09 02:39 | 43.56833 | -116.23827 | 2874 ft | 9 kts | 269° |
| 2026-05-09 02:39 | 43.56794 | -116.23881 | 2874 ft | 8 kts | 203° |
| 2026-05-09 02:39 | 43.56750 | -116.23906 | 2874 ft | 6 kts | 202° |
| 2026-05-09 02:39 | 43.56720 | -116.23923 | 2874 ft | 4 kts | 202° |
| 2026-05-09 02:40 | 43.56702 | -116.23933 | 2874 ft | 3 kts | 202° |
| 2026-05-09 02:40 | 43.56673 | -116.23949 | 2874 ft | 6 kts | 202° |
| 2026-05-09 02:40 | 43.56624 | -116.23983 | 2874 ft | 9 kts | 223° |
| 2026-05-09 02:40 | 43.56594 | -116.24074 | 2874 ft | 12 kts | 263° |
| 2026-05-09 02:41 | 43.56599 | -116.24190 | 2874 ft | 12 kts | 268° |
| 2026-05-09 02:41 | 43.56589 | -116.24295 | 2874 ft | 8 kts | 263° |
| 2026-05-09 02:41 | 43.56588 | -116.24304 | 2874 ft | 0 kts | 263° |